M/V Gandalf — WDH5343 — position and weather

sailwx.info

Track history (hours):
 
Tides and Currents Weather Stations Pressure Air Temp Water Temp Dewpoint Dewpoint Depression Visibility Wind Speed Wind Dir Waves Ship Positions

M/V Gandalf

Owner: Gillin, Frank O, Milwaukie, OR. More information available from US FCC via Universal Licensing System and Coast Guard Vessel Documentation Center.

Last reported at 2018-Mar-24 15:57 UTC. Time now 2018-Apr-24 02:51 UTC.
Position N 48°30' W 122°42'.
Warning: this ship's position is 30 days out of date.

Length 12 m.

Type: Pleasure craft. MMSI: 367627020.

Date/timePositionNaut miles runAvg speedWind from/ knotsBaromVisibWave heightAir tempDewpointWater temp
2018-Mar-24 15:57N 48°30' W 122°42'3 7.6
2018-Mar-24 15:30N 48°31' W 122°47'4 7.0
2018-Mar-24 15:00N 48°34' W 122°50'4 8.2
2018-Mar-24 14:30N 48°38' W 122°52'1 1.6
2018-Mar-24 14:00N 48°39' W 122°52'0 0.0
2018-Mar-24 13:24N 48°39' W 122°52'0 0.0
2018-Mar-24 13:00N 48°39' W 122°52'0 0.0
2018-Mar-24 12:18N 48°39' W 122°52'0 0.0
2018-Mar-24 12:00N 48°39' W 122°52'0 0.0
2018-Mar-24 11:30N 48°39' W 122°52'0 0.0
2018-Mar-24 11:00N 48°39' W 122°52'0 0.0
2018-Mar-24 10:18N 48°39' W 122°52'0 0.0
2018-Mar-24 09:53N 48°39' W 122°52'0 0.0
2018-Mar-24 09:29N 48°39' W 122°52'0 0.0
2018-Mar-24 08:59N 48°39' W 122°52'0 0.0
2018-Mar-24 08:29N 48°39' W 122°52'0 0.0
2018-Mar-24 07:59N 48°39' W 122°52'0 0.0
2018-Mar-24 07:29N 48°39' W 122°52'0 0.0
2018-Mar-24 06:59N 48°39' W 122°52'0 0.0
2018-Mar-24 01:45N 48°39' W 122°52'0 0.0
2018-Mar-24 01:21N 48°39' W 122°52'0 0.0
2018-Mar-24 00:33N 48°39' W 122°52'0 0.0
2018-Mar-24 00:09N 48°39' W 122°52'0 0.0
2018-Mar-23 23:03N 48°39' W 122°52'0 0.0
2018-Mar-23 22:51N 48°39' W 122°52'0 0.0
2018-Mar-23 22:24N 48°39' W 122°52'0 0.0
2018-Mar-23 21:51N 48°39' W 122°52'0 0.0
2018-Mar-23 21:21N 48°39' W 122°52'0 0.0
2018-Mar-23 17:39N 48°39' W 122°52'0 0.0
2018-Mar-23 17:21N 48°39' W 122°52'0 0.0
2018-Mar-23 16:51N 48°39' W 122°52'0 0.0
2018-Mar-23 16:30N 48°39' W 122°52'0 0.0
2018-Mar-23 14:45N 48°39' W 122°52'0 0.0
2018-Mar-23 14:15N 48°39' W 122°52'0 0.0
2018-Mar-23 13:54N 48°39' W 122°52'0 0.0
2018-Mar-23 13:08N 48°39' W 122°52'0 0.0
2018-Mar-23 12:53N 48°39' W 122°52'0 0.0
2018-Mar-23 11:53N 48°39' W 122°52'0 0.0
2018-Mar-23 11:25N 48°39' W 122°52'0 0.0
2018-Mar-23 10:55N 48°39' W 122°52'0 0.0
2018-Mar-23 10:19N 48°39' W 122°52'0 0.0
2018-Mar-23 09:49N 48°39' W 122°52'0 0.0
2018-Mar-23 08:25N 48°39' W 122°52'0 0.0
2018-Mar-23 07:49N 48°39' W 122°52'0 0.0
2018-Mar-23 07:25N 48°39' W 122°52'0 0.0
2018-Mar-23 06:55N 48°39' W 122°52'0 0.0
2018-Mar-23 05:13N 48°39' W 122°52'0 0.0
2018-Mar-23 04:31N 48°39' W 122°52'0 0.0
2018-Mar-23 04:25N 48°39' W 122°52'0 0.0
2018-Mar-23 03:55N 48°39' W 122°52'0 0.0
2018-Mar-23 01:20N 48°39' W 122°52'0 0.0
2018-Mar-23 00:50N 48°39' W 122°52'0 0.0
2018-Mar-23 00:14N 48°39' W 122°52'0 0.0
2018-Mar-22 23:50N 48°39' W 122°52'0 0.0
2018-Mar-22 23:08N 48°39' W 122°52'0 0.0
2018-Mar-22 22:50N 48°39' W 122°52'0 0.0
2018-Mar-22 22:20N 48°39' W 122°52'0 0.0
2018-Mar-22 21:44N 48°39' W 122°52'0 0.0
2018-Mar-22 21:20N 48°39' W 122°52'0 0.0
2018-Mar-22 18:20N 48°39' W 122°52'0 0.2
2018-Mar-22 18:00N 48°39' W 122°52'3 6.7
2018-Mar-22 17:30N 48°35' W 122°52'4 7.4
2018-Mar-22 17:00N 48°36' W 122°58'  
2018-Mar-19 22:28N 48°35' W 123°02'4 8.3
2018-Mar-19 21:59N 48°33' W 122°57'3 6.2
2018-Mar-19 21:30N 48°34' W 122°53'4 7.4
2018-Mar-19 20:58N 48°32' W 122°49'4 6.4
2018-Mar-19 20:23N 48°30' W 122°44'  
Track history (hours):
 
Tides and Currents Weather Stations Pressure Air Temp Water Temp Dewpoint Dewpoint Depression Visibility Wind Speed Wind Dir Waves Ship Positions

M/V Gandalf

Owner: Gillin, Frank O, Milwaukie, OR. More information available from US FCC via Universal Licensing System and Coast Guard Vessel Documentation Center.

Last reported at 2018-Mar-24 15:57 UTC. Time now 2018-Apr-24 02:51 UTC.
Position N 48°30' W 122°42'.
Warning: this ship's position is 30 days out of date.

Length 12 m.

Type: Pleasure craft. MMSI: 367627020.

Date/timePositionNaut miles runAvg speedWind from/ knotsBaromVisibWave heightAir tempDewpointWater temp
2018-Mar-24 15:57N 48°30' W 122°42'3 7.6
2018-Mar-24 15:30N 48°31' W 122°47'4 7.0
2018-Mar-24 15:00N 48°34' W 122°50'4 8.2
2018-Mar-24 14:30N 48°38' W 122°52'1 1.6
2018-Mar-24 14:00N 48°39' W 122°52'0 0.0
2018-Mar-24 13:24N 48°39' W 122°52'0 0.0
2018-Mar-24 13:00N 48°39' W 122°52'0 0.0
2018-Mar-24 12:18N 48°39' W 122°52'0 0.0
2018-Mar-24 12:00N 48°39' W 122°52'0 0.0
2018-Mar-24 11:30N 48°39' W 122°52'0 0.0
2018-Mar-24 11:00N 48°39' W 122°52'0 0.0
2018-Mar-24 10:18N 48°39' W 122°52'0 0.0
2018-Mar-24 09:53N 48°39' W 122°52'0 0.0
2018-Mar-24 09:29N 48°39' W 122°52'0 0.0
2018-Mar-24 08:59N 48°39' W 122°52'0 0.0
2018-Mar-24 08:29N 48°39' W 122°52'0 0.0
2018-Mar-24 07:59N 48°39' W 122°52'0 0.0
2018-Mar-24 07:29N 48°39' W 122°52'0 0.0
2018-Mar-24 06:59N 48°39' W 122°52'0 0.0
2018-Mar-24 01:45N 48°39' W 122°52'0 0.0
2018-Mar-24 01:21N 48°39' W 122°52'0 0.0
2018-Mar-24 00:33N 48°39' W 122°52'0 0.0
2018-Mar-24 00:09N 48°39' W 122°52'0 0.0
2018-Mar-23 23:03N 48°39' W 122°52'0 0.0
2018-Mar-23 22:51N 48°39' W 122°52'0 0.0
2018-Mar-23 22:24N 48°39' W 122°52'0 0.0
2018-Mar-23 21:51N 48°39' W 122°52'0 0.0
2018-Mar-23 21:21N 48°39' W 122°52'0 0.0
2018-Mar-23 17:39N 48°39' W 122°52'0 0.0
2018-Mar-23 17:21N 48°39' W 122°52'0 0.0
2018-Mar-23 16:51N 48°39' W 122°52'0 0.0
2018-Mar-23 16:30N 48°39' W 122°52'0 0.0
2018-Mar-23 14:45N 48°39' W 122°52'0 0.0
2018-Mar-23 14:15N 48°39' W 122°52'0 0.0
2018-Mar-23 13:54N 48°39' W 122°52'0 0.0
2018-Mar-23 13:08N 48°39' W 122°52'0 0.0
2018-Mar-23 12:53N 48°39' W 122°52'0 0.0
2018-Mar-23 11:53N 48°39' W 122°52'0 0.0
2018-Mar-23 11:25N 48°39' W 122°52'0 0.0
2018-Mar-23 10:55N 48°39' W 122°52'0 0.0
2018-Mar-23 10:19N 48°39' W 122°52'0 0.0
2018-Mar-23 09:49N 48°39' W 122°52'0 0.0
2018-Mar-23 08:25N 48°39' W 122°52'0 0.0
2018-Mar-23 07:49N 48°39' W 122°52'0 0.0
2018-Mar-23 07:25N 48°39' W 122°52'0 0.0
2018-Mar-23 06:55N 48°39' W 122°52'0 0.0
2018-Mar-23 05:13N 48°39' W 122°52'0 0.0
2018-Mar-23 04:31N 48°39' W 122°52'0 0.0
2018-Mar-23 04:25N 48°39' W 122°52'0 0.0
2018-Mar-23 03:55N 48°39' W 122°52'0 0.0
2018-Mar-23 01:20N 48°39' W 122°52'0 0.0
2018-Mar-23 00:50N 48°39' W 122°52'0 0.0
2018-Mar-23 00:14N 48°39' W 122°52'0 0.0
2018-Mar-22 23:50N 48°39' W 122°52'0 0.0
2018-Mar-22 23:08N 48°39' W 122°52'0 0.0
2018-Mar-22 22:50N 48°39' W 122°52'0 0.0
2018-Mar-22 22:20N 48°39' W 122°52'0 0.0
2018-Mar-22 21:44N 48°39' W 122°52'0 0.0
2018-Mar-22 21:20N 48°39' W 122°52'0 0.0
2018-Mar-22 18:20N 48°39' W 122°52'0 0.2
2018-Mar-22 18:00N 48°39' W 122°52'3 6.7
2018-Mar-22 17:30N 48°35' W 122°52'4 7.4
2018-Mar-22 17:00N 48°36' W 122°58'  
2018-Mar-19 22:28N 48°35' W 123°02'4 8.3
2018-Mar-19 21:59N 48°33' W 122°57'3 6.2
2018-Mar-19 21:30N 48°34' W 122°53'4 7.4
2018-Mar-19 20:58N 48°32' W 122°49'4 6.4
2018-Mar-19 20:23N 48°30' W 122°44'  

Dump ship's entire track history